Time;durP1;ratioP1;P1;durP2;ratioP2;P2;SDS_P1;SDS_P2;PMS_P1;PMS_P2;Temp;Humidity;BMP_temperature;BMP_pressure;BME280_temperature;BME280_humidity;BME280_pressure;Samples;Min_cycle;Max_cycle;Signal;HPM_P1;HPM_P2
2024/01/14 00:01:57;;;;;;;71.63;58.50;;;0.60;99.90;;;;;;6131465;23;20021;-77
2024/01/14 00:04:24;;;;;;;80.63;64.77;;;0.60;99.90;;;;;;6127594;23;20315;-77
2024/01/14 00:06:50;;;;;;;124.77;79.40;;;0.60;99.90;;;;;;6127710;23;20205;-77
2024/01/14 00:09:16;;;;;;;215.67;95.07;;;0.30;99.90;;;;;;6127557;23;20016;-77
2024/01/14 00:11:43;;;;;;;95.93;72.40;;;0.10;99.90;;;;;;6127634;23;20009;-77
2024/01/14 00:14:09;;;;;;;108.90;77.60;;;0.20;99.90;;;;;;6127561;23;20006;-77
2024/01/14 00:16:34;;;;;;;90.37;71.10;;;0.30;99.90;;;;;;6127198;23;20010;-76
2024/01/14 00:19:01;;;;;;;110.03;75.90;;;0.40;99.90;;;;;;6153823;23;20299;-77
2024/01/14 00:21:27;;;;;;;84.83;66.73;;;0.40;99.90;;;;;;6153845;23;20434;-77
2024/01/14 00:23:53;;;;;;;87.57;67.27;;;0.40;99.90;;;;;;6127514;23;20002;-77
2024/01/14 00:26:20;;;;;;;91.47;66.70;;;0.50;99.90;;;;;;6127276;23;20311;-77
2024/01/14 00:28:47;;;;;;;88.83;67.53;;;0.50;99.90;;;;;;6127618;23;20068;-77
2024/01/14 00:31:12;;;;;;;90.60;67.80;;;0.50;99.90;;;;;;6127631;23;20006;-77
2024/01/14 00:33:40;;;;;;;76.63;62.03;;;0.40;99.90;;;;;;6127486;23;20005;-77
2024/01/14 00:36:07;;;;;;;129.07;72.83;;;0.50;99.90;;;;;;6155197;23;20072;-77
2024/01/14 00:38:32;;;;;;;115.00;74.70;;;0.50;99.90;;;;;;6129500;23;20001;-77
2024/01/14 00:40:58;;;;;;;78.60;64.07;;;0.40;99.90;;;;;;6129363;23;20308;-77
2024/01/14 00:43:24;;;;;;;113.10;71.23;;;0.40;99.90;;;;;;6129191;23;20024;-77
2024/01/14 00:45:50;;;;;;;109.00;70.07;;;0.40;99.90;;;;;;6155510;23;20024;-77
2024/01/14 00:48:16;;;;;;;102.10;71.80;;;0.40;99.90;;;;;;6129501;23;20010;-77
2024/01/14 00:50:41;;;;;;;89.10;66.70;;;0.30;99.90;;;;;;6155627;23;20008;-77
2024/01/14 00:53:07;;;;;;;104.43;70.07;;;0.40;99.90;;;;;;6155441;23;20001;-77
2024/01/14 00:55:33;;;;;;;100.27;70.57;;;0.40;99.90;;;;;;6128905;23;20084;-76
2024/01/14 00:57:59;;;;;;;101.63;67.63;;;0.30;99.90;;;;;;6155463;23;19997;-77
2024/01/14 01:00:24;;;;;;;112.30;70.07;;;0.30;99.90;;;;;;6129189;23;20013;-77
2024/01/14 01:02:50;;;;;;;139.43;72.90;;;0.30;99.90;;;;;;6155489;23;20046;-77
2024/01/14 01:05:16;;;;;;;86.43;65.63;;;0.40;99.90;;;;;;6129326;23;20067;-77
2024/01/14 01:07:42;;;;;;;103.53;64.93;;;0.30;99.90;;;;;;6129338;23;20006;-77
2024/01/14 01:10:09;;;;;;;91.03;66.40;;;0.30;99.90;;;;;;6129147;23;20016;-77
2024/01/14 01:12:34;;;;;;;116.40;72.60;;;0.30;99.90;;;;;;6128697;23;20017;-77
2024/01/14 01:15:00;;;;;;;114.03;64.17;;;0.20;99.90;;;;;;6129133;23;20009;-77
2024/01/14 01:17:26;;;;;;;139.00;62.83;;;0.30;99.90;;;;;;6128988;23;20015;-77
2024/01/14 01:19:52;;;;;;;145.10;62.00;;;0.30;99.90;;;;;;6129219;23;20438;-77
2024/01/14 01:22:18;;;;;;;100.20;62.03;;;0.20;99.90;;;;;;6155031;23;20001;-77
2024/01/14 01:24:44;;;;;;;88.53;59.23;;;0.20;99.90;;;;;;6128975;23;20010;-77
2024/01/14 01:27:10;;;;;;;91.30;63.80;;;0.20;99.90;;;;;;6155338;23;20028;-77
2024/01/14 01:29:36;;;;;;;137.03;65.13;;;0.20;99.90;;;;;;6128900;23;20002;-77
2024/01/14 01:32:01;;;;;;;80.53;59.93;;;0.20;99.90;;;;;;6129075;23;20009;-77
2024/01/14 01:34:27;;;;;;;113.00;63.43;;;0.30;99.90;;;;;;6154814;23;20001;-77
2024/01/14 01:36:53;;;;;;;75.90;59.07;;;0.30;99.90;;;;;;6128924;23;20456;-77
2024/01/14 01:39:19;;;;;;;97.67;64.03;;;0.30;99.90;;;;;;6128672;23;20009;-77
2024/01/14 01:41:45;;;;;;;89.87;62.27;;;0.20;99.90;;;;;;6128742;23;20005;-77
2024/01/14 01:44:11;;;;;;;95.03;65.07;;;0.30;99.90;;;;;;6128947;23;20370;-76
2024/01/14 01:46:37;;;;;;;81.57;61.43;;;0.30;99.90;;;;;;6128033;23;20010;-76
2024/01/14 01:49:03;;;;;;;155.90;74.20;;;0.30;99.90;;;;;;6155071;23;20089;-77
2024/01/14 01:51:30;;;;;;;108.33;65.37;;;0.30;99.90;;;;;;6154910;23;20017;-77
2024/01/14 01:53:57;;;;;;;144.10;68.33;;;0.30;99.90;;;;;;6154941;23;20001;-77
2024/01/14 01:56:25;;;;;;;218.40;76.77;;;0.20;99.90;;;;;;6128485;23;20322;-77
2024/01/14 01:58:51;;;;;;;77.67;60.47;;;0.20;99.90;;;;;;6128702;23;20378;-77
2024/01/14 02:01:17;;;;;;;94.93;61.87;;;0.20;99.90;;;;;;6128564;23;20023;-77
2024/01/14 02:03:43;;;;;;;94.97;61.20;;;0.30;99.90;;;;;;6128767;23;20009;-77
2024/01/14 02:06:11;;;;;;;74.30;58.67;;;0.20;99.90;;;;;;6128558;23;20009;-77
2024/01/14 02:08:37;;;;;;;73.67;58.30;;;0.20;99.90;;;;;;6128716;23;20449;-77
2024/01/14 02:11:03;;;;;;;155.77;74.33;;;0.30;99.90;;;;;;6154477;23;20024;-77
2024/01/14 02:13:28;;;;;;;87.30;58.83;;;0.20;99.90;;;;;;6128527;23;20006;-77
2024/01/14 02:15:54;;;;;;;88.23;61.70;;;0.20;99.90;;;;;;6154536;23;20008;-77
2024/01/14 02:18:20;;;;;;;90.50;59.37;;;0.20;99.90;;;;;;6154628;23;20037;-77
2024/01/14 02:20:46;;;;;;;122.13;66.63;;;0.20;99.90;;;;;;6154800;23;20080;-77
2024/01/14 02:23:16;;;;;;;138.27;71.17;;;0.20;99.90;;;;;;6154576;23;20019;-76
2024/01/14 02:25:41;;;;;;;90.63;62.80;;;0.10;99.90;;;;;;6128201;23;20006;-77
2024/01/14 02:28:08;;;;;;;101.30;63.20;;;0.10;99.90;;;;;;6128406;23;20088;-77
2024/01/14 02:30:35;;;;;;;155.13;69.67;;;0.20;99.90;;;;;;6128326;23;20006;-76
2024/01/14 02:33:01;;;;;;;94.10;60.70;;;0.20;99.90;;;;;;6154464;23;20076;-76
2024/01/14 02:35:27;;;;;;;110.30;66.60;;;0.20;99.90;;;;;;6128331;23;20033;-76
2024/01/14 02:37:54;;;;;;;75.83;57.70;;;0.00;99.90;;;;;;6128247;23;20405;-76
2024/01/14 02:40:20;;;;;;;103.10;62.47;;;0.10;99.90;;;;;;6154083;23;20545;-76
2024/01/14 02:42:46;;;;;;;73.60;57.20;;;0.10;99.90;;;;;;6128380;23;20012;-76
2024/01/14 02:45:12;;;;;;;74.30;57.33;;;0.10;99.90;;;;;;6154600;23;20005;-76
2024/01/14 02:47:38;;;;;;;65.97;54.43;;;0.10;99.90;;;;;;6154166;23;20032;-76
2024/01/14 02:50:04;;;;;;;72.97;56.53;;;0.20;99.90;;;;;;6154388;23;20011;-76
2024/01/14 02:52:29;;;;;;;104.93;65.17;;;0.20;99.90;;;;;;6154160;23;20010;-76
2024/01/14 02:54:55;;;;;;;84.90;59.27;;;0.20;99.90;;;;;;6153907;23;20075;-76
2024/01/14 02:57:21;;;;;;;75.40;57.77;;;0.20;99.90;;;;;;6127989;23;20001;-76
2024/01/14 02:59:47;;;;;;;89.03;61.20;;;0.20;99.90;;;;;;6128281;23;20012;-76
2024/01/14 03:02:12;;;;;;;107.27;65.83;;;0.20;99.90;;;;;;6183106;23;20016;-76
2024/01/14 03:04:38;;;;;;;86.80;61.67;;;0.20;99.90;;;;;;6157483;23;20001;-76
2024/01/14 03:07:04;;;;;;;90.00;61.97;;;0.20;99.90;;;;;;6184266;23;20001;-76
2024/01/14 03:09:29;;;;;;;71.07;56.23;;;0.20;99.90;;;;;;6157497;23;20429;-76
2024/01/14 03:11:55;;;;;;;74.00;57.07;;;0.30;99.90;;;;;;6184182;23;19997;-76
2024/01/14 03:14:21;;;;;;;86.43;59.00;;;0.30;99.90;;;;;;6157441;23;20434;-76
2024/01/14 03:16:46;;;;;;;76.80;62.73;;;0.30;99.90;;;;;;6157558;23;20009;-76
2024/01/14 03:19:12;;;;;;;77.47;56.97;;;0.40;99.90;;;;;;6184109;23;20315;-76
2024/01/14 03:21:38;;;;;;;74.60;57.97;;;0.40;99.90;;;;;;6157115;23;20059;-76
2024/01/14 03:24:04;;;;;;;68.47;53.73;;;0.40;99.90;;;;;;6157322;23;20016;-76
2024/01/14 03:26:29;;;;;;;70.37;53.37;;;0.40;99.90;;;;;;6183727;23;20077;-76
2024/01/14 03:28:55;;;;;;;79.30;54.27;;;0.50;99.90;;;;;;6157611;23;20060;-76
2024/01/14 03:31:21;;;;;;;69.80;53.50;;;0.40;99.90;;;;;;6157326;23;20139;-76
2024/01/14 03:33:47;;;;;;;87.07;55.53;;;0.20;99.90;;;;;;6157309;23;20433;-76
2024/01/14 03:36:16;;;;;;;67.43;52.70;;;0.20;99.90;;;;;;6157366;23;20091;-76
2024/01/14 03:38:42;;;;;;;63.13;50.67;;;0.20;99.90;;;;;;6183712;23;20092;-76
2024/01/14 03:41:08;;;;;;;60.00;49.13;;;0.20;99.90;;;;;;6183624;23;20084;-76
2024/01/14 03:43:34;;;;;;;58.23;48.60;;;0.10;99.90;;;;;;6157427;23;20280;-76
2024/01/14 03:46:00;;;;;;;57.83;47.37;;;0.20;99.90;;;;;;6157334;23;20005;-76
2024/01/14 03:48:25;;;;;;;62.67;49.93;;;0.20;99.90;;;;;;6157336;23;20017;-76
2024/01/14 03:50:51;;;;;;;59.43;49.07;;;0.20;99.90;;;;;;6157083;23;20433;-76
2024/01/14 03:53:18;;;;;;;66.93;52.20;;;0.10;99.90;;;;;;6183513;23;20005;-76
2024/01/14 03:55:47;;;;;;;65.50;50.27;;;0.10;99.90;;;;;;6157025;23;20008;-76
2024/01/14 03:58:13;;;;;;;64.37;49.97;;;0.20;99.90;;;;;;6183564;23;20001;-76
2024/01/14 04:00:39;;;;;;;60.80;49.37;;;0.10;99.90;;;;;;6147559;23;20446;-76
2024/01/14 04:03:04;;;;;;;76.77;52.27;;;0.10;99.90;;;;;;6127447;23;20012;-76
2024/01/14 04:05:30;;;;;;;57.27;48.10;;;0.10;99.90;;;;;;6153832;23;20009;-76
2024/01/14 04:07:56;;;;;;;59.83;49.00;;;0.10;99.90;;;;;;6127800;23;20005;-76
2024/01/14 04:10:21;;;;;;;56.70;47.20;;;0.10;99.90;;;;;;6127243;23;20005;-76
2024/01/14 04:12:48;;;;;;;59.90;49.80;;;0.10;99.90;;;;;;6127697;23;20009;-76
2024/01/14 04:15:14;;;;;;;58.07;48.10;;;0.20;99.90;;;;;;6127428;23;20006;-76
2024/01/14 04:17:39;;;;;;;57.63;45.60;;;0.10;99.90;;;;;;6153893;23;19998;-76
2024/01/14 04:20:06;;;;;;;63.53;49.10;;;0.10;99.90;;;;;;6153592;23;20032;-76
2024/01/14 04:22:32;;;;;;;62.87;50.93;;;0.10;99.90;;;;;;6127531;23;20006;-76
2024/01/14 04:24:57;;;;;;;61.93;50.80;;;0.10;99.90;;;;;;6127268;23;20389;-76
2024/01/14 04:27:23;;;;;;;54.10;46.93;;;0.10;99.90;;;;;;6153962;23;20001;-76
2024/01/14 04:29:49;;;;;;;57.13;45.90;;;0.00;99.90;;;;;;6127736;23;20009;-76
2024/01/14 04:32:14;;;;;;;52.10;43.80;;;0.00;99.90;;;;;;6127563;23;20002;-76
2024/01/14 04:34:40;;;;;;;56.70;44.03;;;0.00;94.70;;;;;;6153667;23;20005;-76
2024/01/14 04:37:06;;;;;;;53.33;45.27;;;-0.10;97.40;;;;;;6127476;23;20036;-76
2024/01/14 04:39:31;;;;;;;55.40;46.47;;;-0.10;99.90;;;;;;6153652;23;20062;-76
2024/01/14 04:41:57;;;;;;;59.37;47.77;;;-0.20;99.90;;;;;;6127341;23;20002;-76
2024/01/14 04:44:23;;;;;;;61.50;50.10;;;-0.10;99.90;;;;;;6127501;23;20006;-76
2024/01/14 04:46:49;;;;;;;59.70;49.33;;;-0.10;99.90;;;;;;6153683;23;20363;-76
2024/01/14 04:49:15;;;;;;;63.20;51.07;;;-0.10;99.90;;;;;;6153612;23;20252;-76
2024/01/14 04:51:40;;;;;;;66.13;52.13;;;-0.10;99.90;;;;;;6153651;23;20466;-76
2024/01/14 04:54:07;;;;;;;69.80;51.97;;;-0.10;99.90;;;;;;6127402;23;20096;-76
2024/01/14 04:56:33;;;;;;;66.77;50.93;;;-0.10;99.90;;;;;;6153411;23;20081;-76
2024/01/14 04:58:59;;;;;;;81.67;53.83;;;-0.10;99.90;;;;;;6153438;23;20001;-76
2024/01/14 05:01:25;;;;;;;72.00;51.20;;;-0.10;99.90;;;;;;6172534;23;20020;-76
2024/01/14 05:03:50;;;;;;;91.23;42.03;;;-0.20;99.90;;;;;;6156874;23;20029;-76
2024/01/14 05:06:16;;;;;;;71.93;33.07;;;-0.20;99.90;;;;;;6157078;23;20052;-76
2024/01/14 05:08:42;;;;;;;105.87;35.43;;;-0.20;99.90;;;;;;6156791;23;20063;-76
2024/01/14 05:11:09;;;;;;;87.90;33.97;;;-0.20;99.90;;;;;;6156856;23;20331;-76
2024/01/14 05:13:35;;;;;;;109.77;38.13;;;-0.30;99.90;;;;;;6156853;23;20092;-75
2024/01/14 05:16:01;;;;;;;107.63;34.70;;;-0.30;99.90;;;;;;6182970;23;20438;-76
2024/01/14 05:18:28;;;;;;;124.40;33.47;;;-0.40;99.90;;;;;;6156923;23;20008;-76
2024/01/14 05:20:53;;;;;;;122.10;34.07;;;-0.30;99.90;;;;;;6156778;23;20429;-76
2024/01/14 05:23:21;;;;;;;69.87;32.27;;;-0.30;99.90;;;;;;6184892;23;20024;-75
2024/01/14 05:25:46;;;;;;;62.27;38.67;;;-0.30;99.90;;;;;;6158341;23;20031;-76
2024/01/14 05:28:12;;;;;;;72.70;31.83;;;-0.20;99.90;;;;;;6158597;23;20441;-76
2024/01/14 05:30:38;;;;;;;72.77;30.60;;;-0.20;99.90;;;;;;6158626;23;20009;-76
2024/01/14 05:33:04;;;;;;;61.20;31.17;;;-0.20;99.90;;;;;;6158365;23;20032;-76
2024/01/14 05:35:30;;;;;;;77.20;33.43;;;-0.20;99.90;;;;;;6184821;23;20008;-76
2024/01/14 05:37:56;;;;;;;81.90;32.27;;;-0.20;99.90;;;;;;6158606;23;20001;-76
2024/01/14 05:40:22;;;;;;;87.27;29.63;;;-0.20;99.90;;;;;;6184835;23;20036;-76
2024/01/14 05:42:48;;;;;;;73.57;31.70;;;-0.30;99.90;;;;;;6158523;23;20024;-76
2024/01/14 05:45:14;;;;;;;65.97;29.27;;;-0.40;99.90;;;;;;6184749;23;20005;-76
2024/01/14 05:47:40;;;;;;;63.90;29.27;;;-0.50;99.90;;;;;;6158065;23;20038;-76
2024/01/14 05:50:09;;;;;;;51.47;28.60;;;-0.70;99.90;;;;;;6155808;23;20537;-76
2024/01/14 05:52:35;;;;;;;46.80;26.90;;;-0.70;99.90;;;;;;6184488;23;20005;-76
2024/01/14 05:55:01;;;;;;;47.20;26.80;;;-0.70;99.90;;;;;;6184510;23;20060;-75
2024/01/14 05:57:27;;;;;;;50.50;27.97;;;-0.70;99.90;;;;;;6158085;23;20087;-76
2024/01/14 05:59:52;;;;;;;47.33;27.47;;;-0.70;99.90;;;;;;6184648;23;20029;-76
2024/01/14 06:02:18;;;;;;;53.17;26.07;;;-0.70;99.90;;;;;;6158066;23;20005;-75
2024/01/14 06:04:44;;;;;;;45.80;25.33;;;-0.60;99.90;;;;;;6184501;23;20001;-75
2024/01/14 06:07:09;;;;;;;47.63;26.80;;;-0.50;99.90;;;;;;6184679;23;20076;-76
2024/01/14 06:09:35;;;;;;;44.30;25.07;;;-0.50;99.90;;;;;;6158089;23;20001;-75
2024/01/14 06:12:01;;;;;;;51.27;26.20;;;-0.50;99.90;;;;;;6157982;23;20009;-75
2024/01/14 06:14:27;;;;;;;43.47;25.23;;;-0.40;99.90;;;;;;6184353;23;20024;-76
2024/01/14 06:16:53;;;;;;;45.23;25.50;;;-0.40;99.90;;;;;;6184396;23;20001;-76
2024/01/14 06:19:19;;;;;;;44.17;25.03;;;-0.40;99.90;;;;;;6158034;23;20093;-75
2024/01/14 06:21:44;;;;;;;46.13;25.53;;;-0.40;93.00;;;;;;6157776;23;20036;-75
2024/01/14 06:24:13;;;;;;;43.90;24.10;;;-0.40;94.60;;;;;;6184392;23;20080;-75
2024/01/14 06:26:39;;;;;;;45.70;24.13;;;-0.40;92.70;;;;;;6157907;23;20013;-75
2024/01/14 06:29:05;;;;;;;46.13;25.73;;;-0.50;93.30;;;;;;6184401;23;20012;-75
2024/01/14 06:31:30;;;;;;;45.60;25.50;;;-0.50;99.00;;;;;;6157839;23;20040;-75
2024/01/14 06:33:56;;;;;;;43.57;25.97;;;-0.50;97.70;;;;;;6157960;23;20005;-75
2024/01/14 06:36:22;;;;;;;40.97;24.80;;;-0.50;91.30;;;;;;6157629;23;20381;-75
2024/01/14 06:38:48;;;;;;;44.83;25.50;;;-0.60;74.40;;;;;;6184419;23;20001;-75
2024/01/14 06:41:18;;;;;;;40.00;23.97;;;-0.60;76.80;;;;;;6183762;23;19997;-75
2024/01/14 06:43:44;;;;;;;38.63;24.30;;;-0.70;62.60;;;;;;6157917;23;20519;-75
2024/01/14 06:46:09;;;;;;;46.67;26.23;;;-0.70;70.30;;;;;;6157753;23;20005;-75
2024/01/14 06:48:35;;;;;;;43.13;25.50;;;-0.70;94.00;;;;;;6158010;23;20071;-75
2024/01/14 06:51:02;;;;;;;45.90;25.83;;;-0.70;98.10;;;;;;6157688;23;20370;-75
2024/01/14 06:53:28;;;;;;;40.90;23.63;;;-0.70;97.70;;;;;;6184080;23;20001;-75
2024/01/14 06:55:54;;;;;;;45.27;25.50;;;-0.70;94.10;;;;;;6183751;23;20008;-75
2024/01/14 06:58:20;;;;;;;47.80;26.00;;;-0.70;95.40;;;;;;6157789;23;20005;-75
2024/01/14 07:00:45;;;;;;;53.07;26.77;;;-0.70;99.90;;;;;;6157243;23;20013;-75
2024/01/14 07:03:11;;;;;;;49.47;25.90;;;-0.60;99.90;;;;;;6183937;23;20001;-75
2024/01/14 07:05:37;;;;;;;43.77;25.33;;;-0.60;99.90;;;;;;6157650;23;20009;-75
2024/01/14 07:08:04;;;;;;;50.30;26.97;;;-0.50;99.90;;;;;;6157285;23;20012;-75
2024/01/14 07:10:30;;;;;;;46.97;25.97;;;-0.40;99.90;;;;;;6157466;23;20485;-75
2024/01/14 07:12:56;;;;;;;53.37;27.27;;;-0.30;99.90;;;;;;6157378;23;20001;-75
2024/01/14 07:15:23;;;;;;;51.33;26.97;;;-0.10;99.90;;;;;;6157408;23;20037;-75
2024/01/14 07:17:49;;;;;;;54.23;28.73;;;0.00;99.90;;;;;;6157330;23;20060;-75
2024/01/14 07:20:15;;;;;;;56.50;30.20;;;0.00;99.90;;;;;;6157517;23;20055;-75
2024/01/14 07:22:41;;;;;;;50.47;27.83;;;0.10;99.90;;;;;;6183802;23;20004;-75
2024/01/14 07:25:08;;;;;;;55.90;30.57;;;0.10;99.90;;;;;;6183787;23;20005;-75
2024/01/14 07:27:35;;;;;;;51.80;28.43;;;0.10;99.90;;;;;;6157158;23;20441;-75
2024/01/14 07:30:01;;;;;;;53.73;30.57;;;0.00;99.90;;;;;;6183956;23;20001;-75
2024/01/14 07:32:27;;;;;;;50.60;30.13;;;-0.10;99.90;;;;;;6157172;23;20059;-75
2024/01/14 07:34:53;;;;;;;51.43;29.17;;;-0.10;99.90;;;;;;6183677;23;20084;-75
2024/01/14 07:37:18;;;;;;;48.57;28.40;;;-0.10;98.20;;;;;;6157380;23;20080;-75
2024/01/14 07:39:46;;;;;;;48.00;28.77;;;-0.10;91.50;;;;;;6157124;23;20055;-75
2024/01/14 07:42:12;;;;;;;48.07;28.07;;;-0.20;94.10;;;;;;6157167;23;20028;-75
2024/01/14 07:44:38;;;;;;;50.70;29.87;;;-0.20;95.00;;;;;;6156872;23;20008;-75
2024/01/14 07:47:04;;;;;;;52.10;30.40;;;-0.20;96.80;;;;;;6183673;23;20005;-75
2024/01/14 07:49:30;;;;;;;55.83;30.93;;;-0.20;99.90;;;;;;6183563;23;20005;-75
2024/01/14 07:51:57;;;;;;;58.67;32.20;;;-0.20;99.90;;;;;;6157320;23;20005;-75
2024/01/14 07:54:23;;;;;;;52.93;30.87;;;-0.20;99.90;;;;;;6157079;23;20057;-75
2024/01/14 07:56:48;;;;;;;57.03;31.40;;;-0.10;99.90;;;;;;6182995;23;20008;-75
2024/01/14 07:59:14;;;;;;;57.83;34.03;;;-0.10;99.90;;;;;;6157266;23;20005;-75
2024/01/14 08:01:40;;;;;;;63.87;33.30;;;-0.10;99.90;;;;;;6183423;23;20514;-75
2024/01/14 08:04:05;;;;;;;64.33;36.03;;;-0.10;99.90;;;;;;6183713;23;19997;-75
2024/01/14 08:06:31;;;;;;;77.07;39.60;;;-0.10;99.90;;;;;;6157162;23;20071;-75
2024/01/14 08:08:57;;;;;;;76.57;39.87;;;-0.10;99.90;;;;;;6157275;23;20445;-75
2024/01/14 08:11:23;;;;;;;73.47;38.40;;;0.00;99.90;;;;;;6156635;23;20258;-75
2024/01/14 08:13:49;;;;;;;71.83;38.00;;;0.00;99.90;;;;;;6183503;23;20487;-75
2024/01/14 08:16:15;;;;;;;63.70;33.47;;;0.10;99.90;;;;;;6156825;23;20036;-75
2024/01/14 08:18:41;;;;;;;56.03;32.73;;;0.10;99.90;;;;;;6183553;23;20009;-75
2024/01/14 08:21:10;;;;;;;55.57;32.17;;;0.20;99.90;;;;;;6183194;23;20008;-75
2024/01/14 08:23:37;;;;;;;58.97;33.30;;;0.20;99.90;;;;;;6157276;23;20452;-75
2024/01/14 08:26:03;;;;;;;62.57;33.00;;;0.20;99.90;;;;;;6183092;23;20495;-75
2024/01/14 08:28:34;;;;;;;62.27;36.17;;;0.30;99.90;;;;;;6183503;23;20005;-75
2024/01/14 08:31:00;;;;;;;64.15;37.60;;;0.30;99.90;;;;;;6183366;23;20008;-75
2024/01/14 08:33:27;;;;;;;65.43;36.20;;;0.30;99.90;;;;;;6157056;23;20096;-75
2024/01/14 08:35:54;;;;;;;62.03;35.83;;;0.40;99.90;;;;;;6183291;23;20052;-75
2024/01/14 08:38:20;;;;;;;63.27;37.60;;;0.40;99.90;;;;;;6157106;23;20005;-75
2024/01/14 08:40:46;;;;;;;67.47;37.43;;;0.50;99.90;;;;;;6156560;23;20013;-75
2024/01/14 08:43:12;;;;;;;65.97;38.07;;;0.50;99.90;;;;;;6157118;23;20096;-75
2024/01/14 08:45:38;;;;;;;73.53;39.27;;;0.60;99.90;;;;;;6156857;23;20029;-75
2024/01/14 08:48:07;;;;;;;70.47;38.03;;;0.70;99.90;;;;;;6183449;23;20456;-75
2024/01/14 08:50:33;;;;;;;66.23;36.80;;;0.70;99.90;;;;;;6156803;23;20035;-75
2024/01/14 08:52:59;;;;;;;69.83;37.87;;;0.80;99.90;;;;;;6156833;23;20009;-75
2024/01/14 08:55:24;;;;;;;68.47;37.73;;;0.80;99.90;;;;;;6156910;23;20005;-75
2024/01/14 08:57:50;;;;;;;70.67;39.23;;;0.90;99.90;;;;;;6158890;23;20056;-75
2024/01/14 09:00:16;;;;;;;68.80;38.67;;;1.00;99.90;;;;;;6185155;23;20001;-75
2024/01/14 09:02:42;;;;;;;68.50;37.33;;;1.00;99.90;;;;;;6185049;23;20445;-75
2024/01/14 09:05:07;;;;;;;63.37;35.97;;;1.10;99.90;;;;;;6185425;23;20030;-75
2024/01/14 09:07:33;;;;;;;70.00;36.53;;;1.20;99.90;;;;;;6158429;23;20009;-75
2024/01/14 09:09:59;;;;;;;65.23;37.50;;;1.30;99.90;;;;;;6158758;23;20015;-75
2024/01/14 09:12:25;;;;;;;69.30;37.97;;;1.40;99.90;;;;;;6158310;23;20334;-75
2024/01/14 09:14:51;;;;;;;76.67;43.03;;;1.40;99.90;;;;;;6158515;23;20011;-75
2024/01/14 09:17:17;;;;;;;83.80;43.83;;;1.50;99.90;;;;;;6158667;23;20012;-75
2024/01/14 09:19:44;;;;;;;73.13;41.57;;;1.60;99.90;;;;;;6185191;23;19998;-75
2024/01/14 09:22:10;;;;;;;79.67;44.10;;;1.60;99.90;;;;;;6184748;23;20088;-75
2024/01/14 09:24:35;;;;;;;82.77;43.50;;;1.70;99.90;;;;;;6185046;23;20078;-75
2024/01/14 09:27:03;;;;;;;85.30;44.27;;;1.70;99.90;;;;;;6158239;23;20389;-75
2024/01/14 09:29:29;;;;;;;78.77;43.53;;;1.80;99.90;;;;;;6158569;23;20342;-75
2024/01/14 09:31:55;;;;;;;78.73;43.57;;;1.80;99.90;;;;;;6184850;23;20005;-75
2024/01/14 09:34:21;;;;;;;81.13;44.93;;;1.80;99.90;;;;;;6158237;23;20016;-75
2024/01/14 09:36:46;;;;;;;78.60;43.80;;;1.90;99.90;;;;;;6158468;23;20087;-75
2024/01/14 09:39:13;;;;;;;71.43;41.33;;;1.90;99.90;;;;;;6158517;23;20009;-75
2024/01/14 09:41:57;;;;;;;78.73;45.77;;;2.00;99.90;;;;;;6158413;23;20080;-75
2024/01/14 09:44:23;;;;;;;84.07;46.63;;;2.00;99.90;;;;;;6158191;23;20012;-75
2024/01/14 09:46:49;;;;;;;82.77;46.63;;;2.10;99.90;;;;;;6184083;23;20055;-75
2024/01/14 09:49:16;;;;;;;81.70;44.50;;;2.10;99.90;;;;;;6158035;23;20338;-75
2024/01/14 09:51:42;;;;;;;75.33;42.77;;;2.10;99.90;;;;;;6184229;23;20015;-75
2024/01/14 09:54:08;;;;;;;79.07;43.17;;;2.00;99.90;;;;;;6183982;23;20028;-75
2024/01/14 09:56:35;;;;;;;75.87;43.20;;;2.10;99.90;;;;;;6183783;23;20001;-75
2024/01/14 09:59:02;;;;;;;77.53;44.43;;;2.00;99.90;;;;;;6157273;23;20064;-75
2024/01/14 10:01:33;;;;;;;75.67;43.63;;;2.10;99.90;;;;;;6183069;23;20013;-73
2024/01/14 10:04:03;;;;;;;79.27;42.77;;;2.00;99.90;;;;;;6156782;23;20005;-75
2024/01/14 10:06:29;;;;;;;78.97;46.10;;;2.00;99.90;;;;;;6157390;23;20056;-73
2024/01/14 10:08:56;;;;;;;75.13;44.50;;;2.00;99.90;;;;;;6157612;23;20323;-75
2024/01/14 10:11:22;;;;;;;80.97;46.00;;;2.00;99.90;;;;;;6157332;23;20005;-75
2024/01/14 10:13:49;;;;;;;83.00;46.03;;;2.00;99.90;;;;;;6183572;23;20005;-74
2024/01/14 10:16:15;;;;;;;83.37;46.20;;;2.10;99.90;;;;;;6183990;23;20001;-75
2024/01/14 10:18:41;;;;;;;84.27;47.37;;;2.20;99.90;;;;;;6183651;23;20005;-75
2024/01/14 10:21:06;;;;;;;75.60;45.17;;;2.20;99.90;;;;;;6157293;23;20088;-75
2024/01/14 10:23:32;;;;;;;81.60;46.63;;;2.20;99.90;;;;;;6183707;23;20087;-75
2024/01/14 10:26:01;;;;;;;80.00;46.27;;;2.30;99.90;;;;;;6183601;23;20008;-75
2024/01/14 10:28:35;;;;;;;81.97;45.80;;;2.40;99.90;;;;;;6184404;23;20005;-74
2024/01/14 10:31:06;;;;;;;80.90;46.87;;;2.40;99.90;;;;;;6157703;23;20382;-75
2024/01/14 10:33:33;;;;;;;88.30;48.28;;;2.40;99.90;;;;;;6184433;23;20005;-75
2024/01/14 10:36:07;;;;;;;87.20;47.73;;;2.50;99.90;;;;;;6184007;23;20086;-75
2024/01/14 10:38:34;;;;;;;87.47;47.03;;;2.50;99.90;;;;;;6157606;23;20009;-75
2024/01/14 10:41:00;;;;;;;82.80;47.37;;;2.60;99.90;;;;;;6157683;23;20505;-75
2024/01/14 10:43:28;;;;;;;83.03;48.90;;;2.60;99.90;;;;;;6184032;23;20012;-75
2024/01/14 10:45:55;;;;;;;84.67;49.93;;;2.70;99.90;;;;;;6157792;23;20009;-75
2024/01/14 10:48:25;;;;;;;83.03;49.07;;;2.70;99.90;;;;;;6157602;23;20456;-75
2024/01/14 10:50:58;;;;;;;84.17;48.73;;;2.60;99.90;;;;;;6157480;23;20009;-75
2024/01/14 10:53:30;;;;;;;83.20;48.60;;;2.60;99.90;;;;;;6184124;23;20001;-75
2024/01/14 10:56:03;;;;;;;84.68;48.85;;;2.60;99.90;;;;;;6183864;23;20008;-75
2024/01/14 10:58:36;;;;;;;84.18;48.85;;;2.70;99.90;;;;;;6184115;23;19997;-75
2024/01/14 11:01:10;;;;;;;87.60;50.87;;;2.70;99.90;;;;;;6157599;23;20022;-75
2024/01/14 11:03:38;;;;;;;83.03;49.77;;;2.70;99.90;;;;;;6157768;23;20002;-75
2024/01/14 11:06:05;;;;;;;84.68;51.28;;;2.80;99.90;;;;;;6157512;23;20078;-75
2024/01/14 11:08:32;;;;;;;85.97;50.47;;;2.80;99.90;;;;;;6157415;23;20449;-75
2024/01/14 11:10:59;;;;;;;84.50;51.50;;;2.80;99.90;;;;;;6157432;23;20462;-75
2024/01/14 11:13:41;;;;;;;86.67;51.60;;;2.80;99.90;;;;;;6184054;23;20028;-75
2024/01/14 11:16:13;;;;;;;93.80;53.57;;;2.80;99.90;;;;;;6155663;23;20031;-74
2024/01/14 11:18:45;;;;;;;87.97;52.73;;;2.90;99.90;;;;;;6179206;23;20005;-75
2024/01/14 11:21:39;;;;;;;85.28;51.20;;;3.00;99.90;;;;;;6178256;23;20051;-74
2024/01/14 11:24:08;;;;;;;86.90;51.55;;;3.00;99.90;;;;;;6153150;23;20029;-74
2024/01/14 11:26:34;;;;;;;94.78;53.03;;;3.00;99.90;;;;;;6178570;23;20087;-74
2024/01/14 11:29:01;;;;;;;93.70;55.78;;;3.10;99.90;;;;;;6178848;23;20032;-74
2024/01/14 11:32:06;;;;;;;98.38;55.72;;;3.10;99.90;;;;;;6179926;23;20001;-74
2024/01/14 11:34:59;;;;;;;94.07;55.50;;;3.10;99.90;;;;;;6153229;23;20032;-74
2024/01/14 11:37:41;;;;;;;93.70;54.58;;;3.10;99.90;;;;;;6173440;23;20009;-74
2024/01/14 11:40:07;;;;;;;86.07;52.88;;;3.20;99.90;;;;;;6152856;23;20005;-74
2024/01/14 11:42:33;;;;;;;93.13;53.30;;;3.20;99.90;;;;;;6152794;23;20005;-74
2024/01/14 11:45:04;;;;;;;92.30;54.53;;;3.30;99.90;;;;;;6179183;23;20001;-75
2024/01/14 11:47:45;;;;;;;98.43;56.50;;;3.30;99.90;;;;;;6179248;23;20426;-75
2024/01/14 11:50:14;;;;;;;100.45;58.42;;;3.30;99.90;;;;;;6152414;23;20468;-74
2024/01/14 11:52:50;;;;;;;101.78;60.03;;;3.30;99.90;;;;;;6178187;23;20021;-75
2024/01/14 11:55:24;;;;;;;106.47;62.03;;;3.40;99.90;;;;;;6152637;23;20008;-75
2024/01/14 11:57:50;;;;;;;105.60;62.55;;;3.30;99.90;;;;;;6153357;23;20008;-75
2024/01/14 12:00:17;;;;;;;105.80;64.13;;;3.30;99.90;;;;;;6152917;23;20005;-75
2024/01/14 12:02:43;;;;;;;114.72;64.18;;;3.30;99.90;;;;;;6178669;23;20076;-75
2024/01/14 12:05:19;;;;;;;110.85;62.95;;;3.30;99.90;;;;;;6179640;23;20418;-74
2024/01/14 12:07:46;;;;;;;98.07;59.63;;;3.40;99.90;;;;;;6153465;23;20005;-75
2024/01/14 12:10:16;;;;;;;101.40;60.05;;;3.40;99.90;;;;;;6179139;23;20005;-74
2024/01/14 12:12:42;;;;;;;102.63;60.72;;;3.40;99.90;;;;;;6178382;23;20376;-75
2024/01/14 12:15:13;;;;;;;103.47;60.55;;;3.40;99.90;;;;;;6179591;23;20004;-75
2024/01/14 12:17:38;;;;;;;104.47;61.47;;;3.40;99.90;;;;;;6153417;23;20005;-75
2024/01/14 12:20:07;;;;;;;100.10;60.03;;;3.40;99.90;;;;;;6152391;23;20139;-75
2024/01/14 12:22:35;;;;;;;107.20;62.28;;;3.50;99.90;;;;;;6179731;23;20001;-75
2024/01/14 12:25:02;;;;;;;102.28;60.58;;;3.50;99.90;;;;;;6179373;23;20015;-75
2024/01/14 12:27:27;;;;;;;108.35;63.03;;;3.40;99.90;;;;;;6178758;23;20005;-75
2024/01/14 12:29:54;;;;;;;114.07;66.45;;;3.40;99.90;;;;;;6179836;23;20071;-76
2024/01/14 12:32:20;;;;;;;115.40;67.32;;;3.40;99.90;;;;;;6154923;23;20031;-75